Time;durP1;ratioP1;P1;durP2;ratioP2;P2;SDS_P1;SDS_P2;PMS_P1;PMS_P2;Temp;Humidity;BMP_temperature;BMP_pressure;BME280_temperature;BME280_humidity;BME280_pressure;Samples;Min_cycle;Max_cycle;Signal;HPM_P1;HPM_P2
2023/07/22 00:01:51;;;;;;;3.87;3.00;;;16.80;86.50;;;16.63;72.41;97832.88;5127543;27;20932;-82
2023/07/22 00:04:20;;;;;;;3.70;3.40;;;16.50;87.40;;;16.27;73.29;97806.94;5120323;27;20443;-80
2023/07/22 00:06:47;;;;;;;3.83;3.30;;;16.30;87.90;;;15.91;73.69;97764.88;5148300;27;20457;-81
2023/07/22 00:09:15;;;;;;;3.90;3.07;;;16.20;88.70;;;16.12;74.70;97821.22;5117984;27;20962;-82
2023/07/22 00:11:42;;;;;;;3.43;3.13;;;16.00;89.40;;;15.88;75.66;97834.28;5144199;27;20489;-83
2023/07/22 00:14:10;;;;;;;3.20;2.90;;;15.80;90.10;;;15.72;76.00;97814.22;5143549;27;20969;-83
2023/07/22 00:16:37;;;;;;;3.33;3.00;;;15.70;90.70;;;15.69;76.91;97837.31;5132826;27;20445;-82
2023/07/22 00:19:07;;;;;;;4.00;3.53;;;15.60;91.20;;;15.68;76.81;97843.84;5145535;27;20435;-82
2023/07/22 00:21:35;;;;;;;3.03;2.80;;;15.50;91.70;;;15.51;77.70;97818.59;5137794;27;20442;-81
2023/07/22 00:24:04;;;;;;;3.37;2.90;;;15.40;91.80;;;15.00;78.04;97749.59;5114065;27;20459;-82
2023/07/22 00:26:32;;;;;;;4.97;3.57;;;15.40;92.30;;;15.26;78.97;97830.75;5143779;27;20443;-80
2023/07/22 00:28:59;;;;;;;3.53;3.23;;;15.20;92.40;;;15.53;79.00;97827.31;5138703;27;20448;-81
2023/07/22 00:31:27;;;;;;;4.20;3.30;;;15.30;93.50;;;15.38;79.29;97825.19;5126786;27;20451;-80
2023/07/22 00:33:54;;;;;;;3.33;3.03;;;15.30;93.10;;;15.43;79.05;97828.00;5121745;27;20465;-80
2023/07/22 00:36:22;;;;;;;3.70;3.40;;;15.20;93.30;;;15.00;78.96;97771.38;5132312;27;20470;-83
2023/07/22 00:38:50;;;;;;;4.07;3.50;;;15.20;93.20;;;15.29;79.69;97828.38;5102917;27;20450;-81
2023/07/22 00:41:18;;;;;;;5.90;3.00;;;15.10;93.60;;;14.69;80.40;97765.44;5119512;27;20511;-81
2023/07/22 00:43:45;;;;;;;2.67;2.47;;;15.00;93.70;;;15.40;80.43;97815.72;5127385;27;20440;-80
2023/07/22 00:46:12;;;;;;;3.83;3.43;;;15.20;94.40;;;15.64;78.79;97822.81;5116000;27;20458;-84
2023/07/22 00:48:40;;;;;;;3.50;2.47;;;15.40;93.50;;;15.73;77.04;97743.13;5151234;27;20447;-80
2023/07/22 00:51:07;;;;;;;3.83;3.23;;;15.80;93.00;;;16.19;75.59;97806.56;5147586;27;20455;-85
2023/07/22 00:53:35;;;;;;;6.37;2.97;;;16.00;91.10;;;14.24;75.94;97540.84;5139312;27;20478;-80
2023/07/22 00:56:04;;;;;;;4.50;3.47;;;15.80;90.90;;;15.91;76.00;97816.63;5145978;27;20455;-81
2023/07/22 00:58:32;;;;;;;3.90;3.30;;;15.70;91.20;;;14.62;77.44;97666.09;5114357;27;20449;-79
2023/07/22 01:00:59;;;;;;;3.90;3.37;;;15.50;91.60;;;15.54;77.98;97812.63;5143675;27;20940;-80
2023/07/22 01:03:28;;;;;;;4.07;3.67;;;15.40;91.90;;;14.24;77.86;97595.19;5125480;27;20469;-81
2023/07/22 01:05:56;;;;;;;3.80;3.40;;;15.40;92.60;;;15.91;77.78;97805.75;5137756;27;20939;-80
2023/07/22 01:08:24;;;;;;;4.23;3.83;;;15.50;92.70;;;15.85;76.63;97808.38;5129166;27;20523;-80
2023/07/22 01:10:51;;;;;;;9.60;3.57;;;15.70;91.60;;;16.31;75.57;97799.06;5121133;27;20442;-80
2023/07/22 01:13:20;;;;;;;3.47;3.17;;;16.00;91.50;;;16.20;74.50;97740.09;5114509;27;20472;-80
2023/07/22 01:15:47;;;;;;;3.70;3.00;;;16.20;90.90;;;17.12;72.10;97788.25;5144924;27;20451;-81
2023/07/22 01:18:14;;;;;;;4.20;3.60;;;16.80;89.70;;;17.25;71.37;97797.88;5129920;27;20447;-80
2023/07/22 01:20:42;;;;;;;4.50;3.90;;;17.10;87.50;;;16.75;72.01;97791.78;5118565;27;20445;-81
2023/07/22 01:23:11;;;;;;;4.27;3.90;;;16.90;86.90;;;16.63;71.90;97806.44;5134122;27;20838;-82
2023/07/22 01:25:38;;;;;;;4.37;3.97;;;16.80;86.90;;;16.09;73.63;97780.84;5154485;27;20920;-81
2023/07/22 01:28:11;;;;;;;3.27;2.97;;;16.30;87.80;;;16.12;75.16;97807.59;5122543;27;20454;-81
2023/07/22 01:30:39;;;;;;;4.60;3.60;;;16.10;90.00;;;16.19;74.58;97801.13;5128508;27;20446;-83
2023/07/22 01:33:07;;;;;;;4.30;3.60;;;16.10;89.70;;;15.93;75.56;97809.03;5142228;27;20785;-83
2023/07/22 01:35:34;;;;;;;4.10;3.57;;;15.90;90.30;;;15.88;75.75;97808.94;5124942;27;20484;-83
2023/07/22 01:38:01;;;;;;;4.30;3.90;;;15.70;90.60;;;15.28;75.72;97728.75;5119863;27;20532;-82
2023/07/22 01:40:31;;;;;;;4.40;4.00;;;15.60;90.80;;;15.44;77.52;97805.97;5140560;27;20439;-82
2023/07/22 01:42:58;;;;;;;4.70;3.13;;;15.40;91.20;;;15.68;77.74;97800.28;5141112;27;20435;-83
2023/07/22 01:45:25;;;;;;;3.90;3.60;;;15.50;91.70;;;15.19;78.06;97768.34;5123635;27;20431;-84
2023/07/22 01:47:53;;;;;;;5.73;3.77;;;15.30;91.60;;;15.33;78.42;97790.59;5169622;27;20442;-84
2023/07/22 01:50:20;;;;;;;3.60;3.30;;;15.30;92.20;;;15.28;78.32;97788.63;5153167;27;20433;-87
2023/07/22 01:52:48;;;;;;;3.50;3.20;;;15.20;91.80;;;15.15;78.07;97784.34;5157908;27;20434;-84
2023/07/22 01:55:15;;;;;;;3.80;3.40;;;15.20;91.70;;;14.73;77.93;97739.44;5166690;27;20475;-84
2023/07/22 01:57:44;;;;;;;3.10;2.60;;;15.10;91.80;;;14.61;78.58;97730.50;5132474;27;20450;-83
2023/07/22 02:00:15;;;;;;;4.20;3.80;;;14.90;92.50;;;15.23;81.10;97793.16;5137446;27;20466;-83
2023/07/22 02:02:43;;;;;;;5.03;3.10;;;15.00;94.10;;;14.30;78.44;97662.09;5149810;27;20431;-84
2023/07/22 02:05:11;;;;;;;3.40;3.00;;;15.10;92.60;;;15.00;78.59;97775.97;5119877;27;20452;-82
2023/07/22 02:07:38;;;;;;;4.10;3.70;;;15.00;92.40;;;14.50;78.84;97705.06;5136819;27;20509;-84
2023/07/22 02:10:07;;;;;;;4.10;3.70;;;15.00;92.60;;;14.57;78.75;97721.22;5141731;27;20529;-81
2023/07/22 02:12:34;;;;;;;3.60;3.30;;;14.80;92.90;;;14.93;79.28;97797.09;5131749;27;20486;-82
2023/07/22 02:15:04;;;;;;;3.67;2.80;;;14.80;92.70;;;14.95;79.46;97801.22;5150277;27;20470;-81
2023/07/22 02:17:31;;;;;;;3.23;2.80;;;14.80;93.10;;;14.89;80.10;97813.09;5132554;27;20445;-80
2023/07/22 02:19:59;;;;;;;5.23;3.50;;;14.70;93.80;;;14.72;80.06;97792.16;5143032;27;20450;-81
2023/07/22 02:22:27;;;;;;;5.80;4.00;;;14.60;93.90;;;14.64;80.84;97798.00;5140214;27;20435;-84
2023/07/22 02:24:54;;;;;;;4.00;3.60;;;14.60;94.00;;;14.04;80.31;97705.19;5112172;27;20448;-85
2023/07/22 02:27:21;;;;;;;3.70;3.30;;;14.60;93.70;;;14.67;80.20;97802.09;5145152;27;20463;-84
2023/07/22 02:29:49;;;;;;;4.00;3.60;;;14.70;93.80;;;14.69;80.38;97814.38;5117487;27;20441;-84
2023/07/22 02:32:18;;;;;;;3.93;3.33;;;14.60;93.60;;;14.34;80.43;97758.38;5141882;27;20446;-84
2023/07/22 02:34:45;;;;;;;3.57;3.27;;;14.60;93.70;;;13.51;79.75;97623.88;5136546;27;20475;-84
2023/07/22 02:37:13;;;;;;;3.83;3.53;;;14.60;93.70;;;14.81;81.07;97816.25;5117668;27;20460;-82
2023/07/22 02:39:42;;;;;;;4.03;3.50;;;14.60;94.40;;;15.00;79.84;97825.78;5138268;27;20457;-85
2023/07/22 02:42:09;;;;;;;4.27;3.70;;;14.90;94.00;;;14.77;78.74;97777.00;5117274;27;20496;-84
2023/07/22 02:44:37;;;;;;;5.80;3.50;;;14.90;92.80;;;14.74;79.75;97805.53;5125157;27;20923;-82
2023/07/22 02:47:06;;;;;;;5.33;3.33;;;14.90;92.80;;;14.91;79.39;97812.84;5115269;27;20446;-85
2023/07/22 02:49:35;;;;;;;4.17;3.83;;;14.80;93.00;;;14.60;80.15;97804.97;5142766;27;20462;-83
2023/07/22 02:52:03;;;;;;;4.20;3.70;;;14.70;93.10;;;14.65;80.09;97818.69;5136429;27;20760;-83
2023/07/22 02:54:30;;;;;;;3.83;3.53;;;14.60;93.10;;;14.39;80.69;97804.66;5128745;27;20462;-82
2023/07/22 02:56:58;;;;;;;3.73;3.40;;;14.50;93.30;;;13.99;80.95;97751.25;5153961;27;20520;-82
2023/07/22 02:59:25;;;;;;;4.10;3.70;;;14.40;94.00;;;14.06;81.71;97779.09;5138564;27;20443;-83
2023/07/22 03:01:52;;;;;;;4.70;3.93;;;14.30;94.50;;;13.83;81.89;97737.38;5124409;27;20454;-81
2023/07/22 03:04:20;;;;;;;4.10;3.50;;;14.30;94.80;;;13.52;82.65;97704.22;5145554;27;20446;-84
2023/07/22 03:06:49;;;;;;;5.77;3.17;;;14.20;95.40;;;14.27;82.43;97820.19;5136722;27;20450;-83
2023/07/22 03:09:17;;;;;;;4.03;3.37;;;14.20;95.20;;;13.74;83.19;97779.59;5145437;27;20671;-81
2023/07/22 03:11:44;;;;;;;4.40;3.40;;;14.10;95.70;;;14.08;83.17;97825.84;5136215;27;20445;-83
2023/07/22 03:14:11;;;;;;;4.17;3.77;;;14.10;95.80;;;14.11;83.29;97838.94;5127334;27;20493;-82
2023/07/22 03:16:40;;;;;;;4.10;3.70;;;14.00;95.60;;;13.95;83.54;97821.53;5108470;27;20924;-82
2023/07/22 03:19:07;;;;;;;7.77;3.47;;;13.90;96.00;;;13.72;84.38;97806.13;5119432;27;20911;-82
2023/07/22 03:21:34;;;;;;;3.97;3.57;;;13.80;97.20;;;13.73;84.90;97810.50;5137507;27;20945;-82
2023/07/22 03:24:05;;;;;;;5.33;4.50;;;13.80;97.90;;;13.78;85.26;97832.31;5112051;27;20441;-83
2023/07/22 03:26:32;;;;;;;5.70;4.40;;;13.70;97.60;;;13.70;85.86;97830.81;5120994;27;20474;-81
2023/07/22 03:29:00;;;;;;;4.43;3.97;;;13.60;98.50;;;13.74;85.68;97831.16;5144535;27;20448;-85
2023/07/22 03:31:27;;;;;;;4.23;3.83;;;13.50;99.70;;;13.56;86.66;97834.88;5130959;27;20557;-85
2023/07/22 03:33:55;;;;;;;3.23;2.93;;;13.50;99.90;;;13.67;86.90;97842.16;5105021;27;20596;-83
2023/07/22 03:36:35;;;;;;;4.37;3.93;;;13.50;99.90;;;13.04;85.72;97741.47;5139576;27;20477;-85
2023/07/22 03:39:04;;;;;;;4.27;3.87;;;13.60;99.90;;;13.53;86.52;97795.44;5140814;27;20454;-85
2023/07/22 03:41:34;;;;;;;3.00;2.73;;;13.60;99.90;;;13.51;86.39;97734.34;5147033;27;20467;-84
2023/07/22 03:44:01;;;;;;;4.47;3.70;;;13.90;99.90;;;13.92;83.10;97783.16;5114879;27;20444;-84
2023/07/22 03:46:29;;;;;;;5.10;4.07;;;14.30;97.00;;;13.96;83.63;97803.34;5159852;27;20443;-83
2023/07/22 03:48:56;;;;;;;4.90;4.40;;;14.30;96.50;;;14.23;82.60;97816.31;5137617;27;20436;-86
2023/07/22 03:51:24;;;;;;;4.43;3.63;;;14.50;95.50;;;14.53;81.77;97875.81;5142633;27;20452;-87
2023/07/22 03:53:51;;;;;;;3.63;3.17;;;14.40;94.60;;;14.21;83.02;97856.50;5131235;27;20449;-86
2023/07/22 03:56:23;;;;;;;4.43;3.50;;;14.30;95.10;;;14.27;83.19;97874.53;5150430;27;20445;-87
2023/07/22 03:58:50;;;;;;;3.70;3.40;;;14.20;95.30;;;13.42;83.29;97729.25;5154632;27;20461;-86
2023/07/22 04:01:18;;;;;;;3.80;3.30;;;14.20;95.70;;;14.07;82.83;97832.34;5155459;27;21036;-87
2023/07/22 04:03:46;;;;;;;5.60;4.17;;;14.30;95.60;;;14.58;82.00;97875.09;5145014;27;20800;-87
2023/07/22 04:06:13;;;;;;;3.37;3.07;;;14.50;95.00;;;14.45;81.01;97858.00;5150671;27;20435;-85
2023/07/22 04:08:40;;;;;;;5.50;3.90;;;14.60;93.80;;;14.56;81.09;97855.50;5159945;27;20446;-85
2023/07/22 04:11:08;;;;;;;5.03;4.20;;;14.60;93.80;;;14.61;80.92;97874.59;5142677;27;20454;-87
2023/07/22 04:13:36;;;;;;;4.13;3.53;;;14.60;93.80;;;14.69;80.48;97871.50;5126287;27;20446;-81
2023/07/22 04:16:05;;;;;;;5.03;3.97;;;14.60;93.60;;;14.70;80.55;97856.81;5152992;27;20477;-81
2023/07/22 04:18:34;;;;;;;4.17;3.80;;;14.70;93.60;;;14.87;80.46;97807.91;5136401;27;20548;-81
2023/07/22 04:21:02;;;;;;;3.73;3.43;;;15.10;94.70;;;15.12;79.33;97850.16;5129180;27;20445;-80
2023/07/22 04:23:31;;;;;;;4.37;3.80;;;15.20;92.60;;;15.37;76.53;97878.00;5135046;27;20831;-84
2023/07/22 04:25:58;;;;;;;4.10;2.67;;;15.40;91.10;;;15.89;77.83;97878.69;5144641;27;21027;-80
2023/07/22 04:28:25;;;;;;;5.53;2.87;;;15.60;91.50;;;15.80;74.75;97842.91;5139906;27;20453;-82
2023/07/22 04:30:59;;;;;;;3.43;3.13;;;16.00;89.50;;;16.23;72.69;97845.84;5154044;27;20906;-80
2023/07/22 04:33:28;;;;;;;4.20;3.20;;;16.30;88.40;;;16.05;72.38;97887.88;5116435;27;20459;-84
2023/07/22 04:35:58;;;;;;;3.40;3.07;;;16.20;87.10;;;15.99;72.59;97881.56;5144161;27;20478;-81
2023/07/22 04:38:26;;;;;;;6.20;2.60;;;16.00;87.30;;;16.98;71.40;97886.91;5116390;27;20465;-82
2023/07/22 04:40:53;;;;;;;4.00;3.03;;;16.50;87.60;;;15.88;71.12;97811.66;5130902;27;20450;-82
2023/07/22 04:43:20;;;;;;;4.10;3.60;;;16.50;85.80;;;16.47;71.20;97881.00;5110847;27;20441;-85
2023/07/22 04:45:48;;;;;;;3.20;2.87;;;16.30;86.50;;;16.77;69.96;97879.66;5121765;27;20561;-83
2023/07/22 04:48:20;;;;;;;3.03;2.50;;;16.50;86.90;;;16.58;71.42;97896.38;5161991;27;20473;-86
2023/07/22 04:50:48;;;;;;;6.00;3.77;;;16.40;86.70;;;16.65;69.41;97877.91;5128486;27;20443;-82
2023/07/22 04:53:17;;;;;;;4.03;3.63;;;16.60;85.20;;;15.60;70.34;97738.09;5101034;27;20505;-82
2023/07/22 04:55:45;;;;;;;5.03;3.97;;;16.50;85.30;;;16.60;69.30;97856.03;5124581;27;20864;-82
2023/07/22 04:58:13;;;;;;;3.83;3.30;;;16.60;85.30;;;17.10;68.75;97837.63;5121162;27;20914;-82
2023/07/22 05:00:41;;;;;;;5.60;4.40;;;17.00;85.50;;;17.11;65.52;97778.41;5110274;28;20460;-83
2023/07/22 05:03:09;;;;;;;7.27;4.43;;;17.60;83.60;;;18.11;63.75;97883.22;5140508;27;20442;-85
2023/07/22 05:05:38;;;;;;;4.40;3.80;;;18.20;81.60;;;17.84;64.19;97858.78;5143266;27;20530;-87
2023/07/22 05:08:07;;;;;;;4.23;3.83;;;18.10;81.40;;;17.47;65.49;97893.28;5139595;27;20523;-86
2023/07/22 05:10:35;;;;;;;5.10;3.43;;;17.80;81.60;;;17.50;66.81;97911.88;5100824;27;20511;-85
2023/07/22 05:13:02;;;;;;;5.67;3.30;;;17.60;82.40;;;17.48;66.75;97905.84;5137227;27;20613;-83
2023/07/22 05:15:29;;;;;;;4.53;4.13;;;17.40;82.80;;;16.95;66.58;97851.97;5120565;27;20989;-82
2023/07/22 05:17:56;;;;;;;3.57;3.20;;;17.30;82.60;;;16.97;68.14;97918.00;5118974;27;20444;-80
2023/07/22 05:20:23;;;;;;;4.10;3.70;;;17.10;82.90;;;17.05;67.98;97910.44;5106219;27;20506;-82
2023/07/22 05:22:52;;;;;;;4.33;3.93;;;17.00;83.30;;;16.48;68.70;97866.28;5121003;27;20439;-83
2023/07/22 05:25:20;;;;;;;4.17;3.53;;;16.80;83.60;;;17.22;68.25;97910.31;5089559;28;20450;-83
2023/07/22 05:27:47;;;;;;;3.70;3.40;;;16.90;84.20;;;17.78;66.45;97915.31;5130782;27;20440;-84
2023/07/22 05:30:14;;;;;;;4.30;3.90;;;17.40;83.90;;;17.60;65.82;97910.31;5101304;28;20444;-83
2023/07/22 05:32:42;;;;;;;3.80;3.40;;;17.40;82.70;;;17.32;65.82;97857.69;5126165;27;20450;-84
2023/07/22 05:35:10;;;;;;;5.73;3.40;;;17.40;82.70;;;17.59;66.21;97905.94;5112479;27;20460;-86
2023/07/22 05:37:37;;;;;;;3.60;2.90;;;17.50;82.80;;;17.78;65.77;97881.72;5144219;27;20456;-83
2023/07/22 05:40:10;;;;;;;5.07;3.87;;;17.60;83.10;;;18.25;64.18;97926.47;5128780;27;20836;-84
2023/07/22 05:42:37;;;;;;;6.70;4.17;;;17.90;82.00;;;18.75;61.93;97887.78;5138370;27;20457;-82
2023/07/22 05:45:06;;;;;;;7.27;5.70;;;18.40;81.60;;;18.20;62.85;97858.13;5126237;27;20464;-84
2023/07/22 05:47:33;;;;;;;5.93;5.00;;;18.30;80.90;;;18.45;62.12;97892.09;5116823;27;20445;-83
2023/07/22 05:50:01;;;;;;;5.73;5.13;;;18.20;80.50;;;18.07;63.19;97925.06;5140928;27;20470;-84
2023/07/22 05:52:28;;;;;;;4.40;4.00;;;18.10;80.40;;;16.40;66.28;97799.41;5111763;27;20459;-83
2023/07/22 05:55:00;;;;;;;4.43;4.03;;;17.50;81.20;;;17.40;67.38;97920.00;5141355;27;20473;-80
2023/07/22 05:57:29;;;;;;;6.70;4.23;;;17.20;82.70;;;17.14;67.16;97919.81;5134525;27;20475;-81
2023/07/22 05:59:56;;;;;;;4.40;3.23;;;17.10;82.50;;;16.93;67.40;97848.69;5130108;27;20447;-80
2023/07/22 06:02:24;;;;;;;3.87;3.57;;;17.20;83.30;;;17.08;66.50;97874.47;5131466;27;20447;-81
2023/07/22 06:04:51;;;;;;;3.83;3.00;;;17.30;82.40;;;17.49;68.18;97928.53;5134517;27;20527;-82
2023/07/22 06:07:18;;;;;;;7.43;3.20;;;17.20;83.10;;;17.79;66.31;97933.34;5116658;27;20534;-80
2023/07/22 06:09:46;;;;;;;4.37;4.03;;;17.40;83.00;;;17.98;64.04;97884.53;5134478;27;20443;-82
2023/07/22 06:12:13;;;;;;;4.03;3.50;;;17.80;82.10;;;18.01;64.22;97932.38;5104181;27;20454;-78
2023/07/22 06:14:41;;;;;;;5.30;4.80;;;17.70;81.80;;;17.36;65.86;97937.97;5104679;27;21313;-79
2023/07/22 06:17:09;;;;;;;5.67;5.17;;;17.40;81.70;;;17.42;66.00;97945.16;5113088;27;20471;-79
2023/07/22 06:19:36;;;;;;;5.00;4.43;;;17.20;82.10;;;17.01;67.18;97951.09;5126154;27;20481;-77
2023/07/22 06:22:04;;;;;;;4.83;4.33;;;17.10;82.20;;;16.94;67.66;97948.56;5120986;27;20471;-79
2023/07/22 06:24:31;;;;;;;5.07;4.50;;;17.00;82.60;;;17.00;67.70;97941.28;5130318;27;20455;-79
2023/07/22 06:26:58;;;;;;;4.23;3.60;;;16.90;83.10;;;16.92;68.32;97953.44;5127907;27;20454;-78
2023/07/22 06:29:25;;;;;;;4.10;3.70;;;16.90;83.20;;;16.95;67.71;97961.13;5110526;27;20439;-77
2023/07/22 06:31:54;;;;;;;6.30;3.80;;;16.80;83.20;;;17.17;67.40;97965.69;5103315;27;20464;-77
2023/07/22 06:34:21;;;;;;;4.90;4.40;;;16.90;83.20;;;17.02;67.47;97971.00;5131032;27;20452;-77
2023/07/22 06:36:48;;;;;;;5.17;4.23;;;16.90;83.30;;;17.01;67.66;97962.03;5126884;27;20539;-78
2023/07/22 06:39:15;;;;;;;4.37;3.97;;;16.80;83.40;;;16.75;68.33;97959.00;5118407;27;20479;-75
2023/07/22 06:41:42;;;;;;;5.07;4.60;;;16.70;83.10;;;16.95;67.67;97972.03;5127120;27;20545;-75
2023/07/22 06:44:09;;;;;;;5.07;4.57;;;16.80;83.40;;;16.87;67.90;97975.22;5099641;27;21004;-74
2023/07/22 06:46:37;;;;;;;5.47;4.43;;;16.80;83.10;;;16.97;67.64;97960.84;5124408;27;20940;-74
2023/07/22 06:49:05;;;;;;;5.27;4.77;;;16.80;83.30;;;16.93;67.30;97979.66;5101096;27;21945;-78
2023/07/22 06:51:33;;;;;;;4.90;4.43;;;16.80;83.00;;;16.64;67.73;97921.78;5098811;27;20815;-82
2023/07/22 06:54:00;;;;;;;4.90;4.43;;;16.80;83.30;;;16.83;68.18;97968.63;5109307;27;20444;-77
2023/07/22 06:56:28;;;;;;;4.10;3.80;;;16.70;83.60;;;16.87;68.08;97980.66;5125564;27;20560;-76
2023/07/22 06:58:56;;;;;;;4.60;3.87;;;16.70;83.40;;;16.68;67.59;97944.72;5101453;27;20465;-74
2023/07/22 07:01:24;;;;;;;4.30;3.90;;;16.70;83.30;;;16.83;68.50;97971.34;5129324;27;21232;-76
2023/07/22 07:03:52;;;;;;;4.80;4.30;;;16.60;83.70;;;16.90;68.34;97980.16;5121556;27;20492;-74
2023/07/22 07:06:20;;;;;;;4.10;3.70;;;16.60;83.80;;;17.17;67.83;97973.88;5143298;27;20821;-75
2023/07/22 07:08:48;;;;;;;4.83;4.33;;;16.80;83.80;;;17.35;67.75;97980.88;5128473;27;20517;-75
2023/07/22 07:11:16;;;;;;;4.20;3.80;;;17.10;84.00;;;17.72;66.79;97978.38;5107683;27;20480;-75
2023/07/22 07:13:43;;;;;;;4.40;3.63;;;17.30;83.70;;;17.82;66.28;97962.06;5120809;27;20458;-75
2023/07/22 07:16:31;;;;;;;4.80;4.27;;;17.70;83.20;;;17.87;65.85;97980.41;5129923;27;20472;-73
2023/07/22 07:18:59;;;;;;;4.10;3.70;;;17.70;82.80;;;17.58;65.54;97954.25;5125268;27;20517;-74
2023/07/22 07:21:28;;;;;;;4.67;4.27;;;17.70;82.10;;;17.91;63.80;97981.50;5125139;27;20448;-73
2023/07/22 07:23:55;;;;;;;6.43;3.80;;;17.80;81.30;;;17.79;63.91;97984.47;5123597;27;20446;-73
2023/07/22 07:26:23;;;;;;;6.20;4.20;;;17.70;80.90;;;17.70;64.64;97992.31;5123894;27;20468;-70
2023/07/22 07:28:51;;;;;;;4.73;4.33;;;17.60;81.30;;;17.73;64.18;97990.97;5110631;27;20441;-73
2023/07/22 07:31:19;;;;;;;5.50;4.93;;;17.70;81.00;;;17.25;64.63;97991.69;5124053;27;20457;-73
2023/07/22 07:33:46;;;;;;;5.03;4.53;;;17.50;80.60;;;17.78;63.38;97994.53;5103244;27;20454;-73
2023/07/22 07:36:14;;;;;;;7.03;4.80;;;17.50;80.50;;;17.56;62.71;97992.78;5122488;27;20569;-74
2023/07/22 07:38:43;;;;;;;5.27;4.37;;;17.50;79.60;;;17.25;63.40;98002.59;5101992;27;20477;-73
2023/07/22 07:41:12;;;;;;;4.60;4.10;;;17.30;79.60;;;17.24;64.12;98011.88;5115120;27;20475;-73
2023/07/22 07:43:40;;;;;;;4.77;4.37;;;17.20;80.20;;;17.31;64.66;98000.75;5104347;27;20471;-73
2023/07/22 07:46:17;;;;;;;6.10;4.60;;;17.20;81.00;;;17.54;63.45;98011.34;5126408;27;20455;-72
2023/07/22 07:48:45;;;;;;;4.60;4.20;;;17.30;80.70;;;17.42;63.11;98003.31;5122192;27;20455;-72
2023/07/22 07:51:14;;;;;;;6.87;5.10;;;17.30;80.00;;;17.43;62.28;98017.78;5126224;27;20463;-73
2023/07/22 07:53:44;;;;;;;5.37;4.87;;;17.30;79.60;;;17.66;61.36;98013.88;5121186;27;20481;-74
2023/07/22 07:56:12;;;;;;;5.90;5.23;;;17.40;79.30;;;18.32;59.24;98014.56;5129773;27;20469;-72
2023/07/22 07:58:40;;;;;;;8.53;5.17;;;17.80;78.50;;;18.08;60.43;98014.97;5103716;27;20679;-75
2023/07/22 08:01:08;;;;;;;7.80;4.97;;;17.90;78.50;;;18.05;61.01;98012.78;5126154;27;20472;-72
2023/07/22 08:03:37;;;;;;;5.00;4.60;;;17.90;78.50;;;17.63;62.96;98022.59;5131565;27;21155;-72
2023/07/22 08:06:06;;;;;;;5.40;4.90;;;17.80;79.10;;;17.60;62.25;98017.66;5129909;27;20584;-74
2023/07/22 08:08:33;;;;;;;5.73;5.13;;;17.70;78.60;;;17.35;62.39;98010.06;5118864;27;20462;-74
2023/07/22 08:11:04;;;;;;;8.40;5.30;;;17.50;78.30;;;17.43;62.35;98015.06;5126815;27;20468;-73
2023/07/22 08:13:33;;;;;;;6.13;5.30;;;17.40;78.60;;;18.12;60.64;98012.56;5123664;27;20485;-74
2023/07/22 08:16:02;;;;;;;5.83;4.33;;;17.70;78.70;;;18.81;58.54;98009.81;5122377;27;20467;-74
2023/07/22 08:18:30;;;;;;;9.30;4.40;;;18.30;78.10;;;18.98;58.42;98013.13;5116620;27;20465;-74
2023/07/22 08:20:58;;;;;;;6.60;5.10;;;18.60;77.70;;;18.86;58.24;98006.28;5126410;27;20449;-73
2023/07/22 08:23:25;;;;;;;4.87;4.33;;;18.90;76.70;;;19.16;58.37;98000.03;5098948;27;20445;-74
2023/07/22 08:25:53;;;;;;;4.70;4.30;;;19.00;77.10;;;19.92;56.18;98008.56;5121222;27;20454;-74
2023/07/22 08:28:21;;;;;;;5.57;5.07;;;19.50;76.30;;;20.41;53.89;98002.66;5125167;27;20996;-73
2023/07/22 08:30:49;;;;;;;6.57;4.00;;;20.00;75.00;;;20.65;52.85;97997.34;5105760;27;20451;-73
2023/07/22 08:33:17;;;;;;;8.17;4.50;;;20.40;73.70;;;20.92;52.23;97994.19;5100609;27;20450;-74
2023/07/22 08:35:45;;;;;;;4.90;4.50;;;20.50;72.80;;;21.05;50.57;97997.41;5121782;27;20468;-74
2023/07/22 08:38:12;;;;;;;4.77;4.37;;;20.70;70.60;;;21.21;50.07;97952.25;5118841;27;20453;-73
2023/07/22 08:40:41;;;;;;;5.63;5.13;;;21.00;70.40;;;21.04;51.59;97987.53;5102533;27;20533;-75
2023/07/22 08:43:11;;;;;;;7.20;4.90;;;21.10;70.20;;;20.28;54.14;97988.44;5121557;27;20556;-75
2023/07/22 08:45:40;;;;;;;5.07;4.57;;;20.70;70.80;;;20.51;52.97;97994.38;5100818;27;20454;-74
2023/07/22 08:48:11;;;;;;;4.53;3.87;;;20.60;70.50;;;21.21;51.00;97987.94;5119881;27;20477;-74
2023/07/22 08:50:51;;;;;;;5.00;4.30;;;20.90;70.40;;;21.37;50.57;97987.84;5112104;27;20455;-75
2023/07/22 08:53:19;;;;;;;4.80;4.40;;;21.10;69.60;;;21.95;49.52;97997.22;5119324;27;20511;-76
2023/07/22 08:55:47;;;;;;;3.80;3.50;;;21.60;69.10;;;22.10;48.75;97990.72;5119853;27;20562;-79
2023/07/22 08:58:15;;;;;;;4.10;3.70;;;21.70;68.20;;;22.71;47.19;97990.31;5126462;27;20449;-74
2023/07/22 09:00:44;;;;;;;5.20;4.70;;;22.40;67.30;;;22.00;48.36;97991.66;5106739;27;20502;-71
2023/07/22 09:03:13;;;;;;;4.40;4.00;;;22.30;66.00;;;23.09;45.69;97995.81;5120127;27;20469;-79
2023/07/22 09:05:40;;;;;;;3.80;3.50;;;22.60;65.20;;;23.21;45.46;97985.16;5130837;27;20527;-74
2023/07/22 09:08:09;;;;;;;4.50;3.67;;;22.90;64.60;;;23.37;45.22;97979.44;5130875;27;20944;-72
2023/07/22 09:10:37;;;;;;;4.30;3.90;;;23.00;64.10;;;23.36;45.66;97979.75;5122284;27;20458;-73
2023/07/22 09:13:05;;;;;;;4.90;4.40;;;23.20;64.00;;;22.87;45.78;97985.41;5114771;27;20493;-72
2023/07/22 09:15:36;;;;;;;4.20;3.70;;;23.00;63.40;;;22.22;46.73;97976.59;5107824;28;20451;-75
2023/07/22 09:18:06;;;;;;;6.30;5.40;;;22.40;62.80;;;21.90;47.98;97975.28;5125363;27;20530;-74
2023/07/22 09:20:35;;;;;;;4.33;3.93;;;22.00;63.60;;;22.87;45.21;97972.47;5117791;27;20487;-74
2023/07/22 09:23:02;;;;;;;4.17;3.60;;;22.50;62.70;;;23.21;44.95;97965.88;5122184;27;20508;-74
2023/07/22 09:25:30;;;;;;;6.33;4.30;;;22.80;62.50;;;22.68;45.13;97979.91;5119496;27;20464;-75
2023/07/22 09:28:00;;;;;;;4.23;3.43;;;22.80;61.30;;;22.54;45.30;97964.13;5091172;27;20445;-74
2023/07/22 09:30:29;;;;;;;5.73;4.17;;;22.70;61.60;;;21.90;47.15;97953.28;5126872;27;20474;-74
2023/07/22 09:33:00;;;;;;;5.10;4.43;;;22.20;61.80;;;21.55;47.67;97960.75;5119968;27;20804;-74
2023/07/22 09:35:31;;;;;;;4.20;3.40;;;21.70;62.00;;;22.31;46.40;97954.75;5122906;27;20439;-74
2023/07/22 09:37:59;;;;;;;4.33;3.67;;;22.00;62.60;;;22.78;45.35;97950.28;5100782;27;20993;-75
2023/07/22 09:40:28;;;;;;;5.03;4.53;;;22.30;61.80;;;22.13;46.26;97959.88;5120851;27;20485;-74
2023/07/22 09:42:58;;;;;;;6.20;4.83;;;22.30;61.10;;;23.00;44.99;97956.31;5115183;27;20469;-75
2023/07/22 09:45:30;;;;;;;4.63;4.17;;;22.50;61.40;;;23.07;44.00;97948.47;5126679;27;21103;-74
2023/07/22 09:47:58;;;;;;;4.80;3.97;;;23.00;60.30;;;23.67;43.71;97946.94;5101694;27;20463;-74
2023/07/22 09:50:28;;;;;;;4.63;4.23;;;23.30;60.70;;;23.47;43.49;97948.13;5124396;27;20526;-77
2023/07/22 09:52:57;;;;;;;5.63;4.67;;;23.30;59.90;;;22.87;45.02;97944.91;5132056;27;20553;-76
2023/07/22 09:55:28;;;;;;;4.97;4.47;;;22.90;60.20;;;23.16;44.84;97932.06;5123027;27;20473;-78
2023/07/22 09:57:57;;;;;;;4.47;3.90;;;22.90;60.40;;;23.17;43.30;97929.03;5138584;27;20474;-77
2023/07/22 10:00:29;;;;;;;4.00;3.70;;;22.90;59.10;;;23.26;43.16;97942.09;5116994;27;20672;-78
2023/07/22 10:02:58;;;;;;;4.30;3.90;;;23.00;59.10;;;23.02;43.84;97932.03;5098910;27;20449;-73
2023/07/22 10:05:29;;;;;;;4.10;3.70;;;23.00;59.00;;;23.58;42.60;97927.53;5121165;27;20824;-74
2023/07/22 10:07:59;;;;;;;10.13;3.93;;;23.20;58.80;;;24.10;40.76;97934.84;5127448;27;20454;-73
2023/07/22 10:10:32;;;;;;;4.00;3.60;;;23.70;57.60;;;24.77;39.95;97923.53;5127928;27;20457;-73
2023/07/22 10:12:59;;;;;;;3.30;3.00;;;24.30;57.20;;;25.12;39.57;97912.75;5123613;27;20465;-72
2023/07/22 10:15:30;;;;;;;4.53;4.13;;;24.70;57.10;;;24.80;38.82;97914.63;5127812;27;20453;-81
2023/07/22 10:17:57;;;;;;;3.63;3.30;;;24.70;55.60;;;23.87;40.51;97909.06;5123774;27;20605;-79
2023/07/22 10:20:26;;;;;;;3.70;3.40;;;24.30;55.50;;;24.25;40.49;97903.38;5128041;27;20465;-76
2023/07/22 10:22:56;;;;;;;3.40;3.10;;;24.00;56.20;;;24.72;39.92;97916.16;5127740;27;20453;-81
2023/07/22 10:25:24;;;;;;;3.37;3.07;;;24.40;56.40;;;25.00;38.41;97905.03;5142633;27;20613;-78